Deerfield, Virginia
Current Conditions -  °F | °C
As of 9:55 AM on Monday 22 Dec 2014 (Local Time) from KW13 Reporting Station
Overcast Overcast  
Wind Chill: 25°   Ceiling: 500
Heat Index: 30°   Visibility: 1.7mi
Dew Point: 29°   Wind: 5mph
Humidity: 96%   Direction: 120°ESE
Pressure: 30.21"   Gusts: NA
Location:  38.2°N, 79.41°W
Report Text: KW13 221455Z AUTO 12004KT 1 3/4SM BKN005 BKN009 OVC015 M01/M01 A3021 RMK AO1 P0004 60005 T10101015
Loading
Personal Weather Stations






























Interactive Weather Map New forecast layout! Learn more

10-Day Weather Forecast

Advertisements
Track Severe Weather on mobile